Time;durP1;ratioP1;P1;durP2;ratioP2;P2;SDS_P1;SDS_P2;PMS_P1;PMS_P2;Temp;Humidity;BMP_temperature;BMP_pressure;BME280_temperature;BME280_humidity;BME280_pressure;Samples;Min_cycle;Max_cycle;Signal;HPM_P1;HPM_P2
2023/08/26 00:00:29;;;;;;;;;;;;;;;24.30;66.17;100375.69;5026260;28;4227;-66
2023/08/26 00:02:56;;;;;;;;;;;;;;;24.31;65.90;100382.97;5031013;28;4140;-66
2023/08/26 00:05:23;;;;;;;;;;;;;;;24.27;66.19;100374.19;5025340;28;6378;-66
2023/08/26 00:07:49;;;;;;;;;;;;;;;24.27;66.24;100374.91;5026868;28;4145;-67
2023/08/26 00:10:15;;;;;;;;;;;;;;;24.29;66.09;100380.03;5026295;28;4285;-66
2023/08/26 00:12:42;;;;;;;;;;;;;;;24.29;66.23;100374.22;5026684;28;4022;-66
2023/08/26 00:15:08;;;;;;;;;;;;;;;24.26;65.91;100379.25;5029592;28;4360;-66
2023/08/26 00:17:35;;;;;;;;;;;;;;;24.27;65.96;100377.06;5023567;28;4136;-66
2023/08/26 00:20:05;;;;;;;;;;;;;;;24.21;66.32;100366.84;5024951;28;4227;-66
2023/08/26 00:22:31;;;;;;;;;;;;;;;24.24;66.07;100353.88;5029170;28;4196;-66
2023/08/26 00:24:58;;;;;;;;;;;;;;;24.21;66.11;100360.31;5028384;28;4334;-63
2023/08/26 00:27:24;;;;;;;;;;;;;;;24.22;66.10;100362.50;5024548;28;4516;-64
2023/08/26 00:29:51;;;;;;;;;;;;;;;24.21;66.09;100369.75;5041292;28;4120;-67
2023/08/26 00:32:17;;;;;;;;;;;;;;;24.23;66.16;100361.09;5025339;28;4122;-66
2023/08/26 00:34:44;;;;;;;;;;;;;;;24.20;66.03;100356.69;5026229;28;4179;-66
2023/08/26 00:37:12;;;;;;;;;;;;;;;24.21;65.90;100352.38;5022372;28;4369;-66
2023/08/26 00:39:38;;;;;;;;;;;;;;;24.19;66.19;100363.91;5025661;28;4143;-67
2023/08/26 00:42:04;;;;;;;;;;;;;;;24.17;66.12;100358.06;5023271;28;4428;-69
2023/08/26 00:44:31;;;;;;;;;;;;;;;24.15;66.11;100363.81;5027582;28;4173;-66
2023/08/26 00:46:57;;;;;;;;;;;;;;;24.15;66.32;100360.19;5030408;28;4154;-65
2023/08/26 00:49:24;;;;;;;;;;;;;;;24.14;66.17;100356.53;5028563;28;4092;-66
2023/08/26 00:51:50;;;;;;;;;;;;;;;24.13;66.02;100349.28;5028762;28;3969;-66
2023/08/26 00:54:16;;;;;;;;;;;;;;;24.12;66.14;100344.94;5030096;28;4024;-66
2023/08/26 00:56:43;;;;;;;;;;;;;;;24.12;66.14;100344.19;5026402;28;4175;-66
2023/08/26 00:59:09;;;;;;;;;;;;;;;24.12;66.23;100344.19;5040344;28;4247;-66
2023/08/26 01:01:36;;;;;;;;;;;;;;;24.11;65.93;100352.13;5009235;28;4052;-66
2023/08/26 01:04:03;;;;;;;;;;;;;;;24.11;66.10;100354.31;5027962;28;4164;-66
2023/08/26 01:06:30;;;;;;;;;;;;;;;24.09;65.97;100363.66;5007740;28;4275;-67
2023/08/26 01:08:58;;;;;;;;;;;;;;;24.09;65.96;100369.44;5039089;28;4153;-66
2023/08/26 01:11:40;;;;;;;;;;;;;;;24.09;66.05;100366.53;5046432;28;4221;-66
2023/08/26 01:14:23;;;;;;;;;;;;;;;24.07;66.02;100360.72;5027483;28;4593;-65
2023/08/26 01:16:49;;;;;;;;;;;;;;;24.06;66.01;100365.03;5025771;28;4103;-66
2023/08/26 01:19:20;;;;;;;;;;;;;;;24.07;65.96;100368.66;5042983;28;4084;-66
2023/08/26 01:21:47;;;;;;;;;;;;;;;24.06;65.98;100370.81;5042914;28;3989;-66
2023/08/26 01:24:13;;;;;;;;;;;;;;;24.06;66.11;100362.16;5028087;28;4014;-65
2023/08/26 01:26:40;;;;;;;;;;;;;;;24.04;66.17;100362.09;5029311;28;4077;-66
2023/08/26 01:29:07;;;;;;;;;;;;;;;24.04;66.30;100356.31;5019976;28;4145;-66
2023/08/26 01:31:34;;;;;;;;;;;;;;;24.03;66.27;100352.69;5020458;28;4206;-67
2023/08/26 01:34:02;;;;;;;;;;;;;;;24.02;66.01;100353.38;5040512;28;4138;-65
2023/08/26 01:36:28;;;;;;;;;;;;;;;24.01;66.30;100363.47;5039602;28;4238;-66
2023/08/26 01:38:55;;;;;;;;;;;;;;;24.01;66.30;100354.81;5039152;28;4094;-65
2023/08/26 01:41:22;;;;;;;;;;;;;;;24.01;66.19;100343.25;5022435;28;4161;-65
2023/08/26 01:43:48;;;;;;;;;;;;;;;24.01;66.44;100343.25;5043150;28;4138;-65
2023/08/26 01:46:14;;;;;;;;;;;;;;;23.98;66.50;100342.47;5024177;28;4146;-65
2023/08/26 01:48:41;;;;;;;;;;;;;;;23.99;66.46;100340.28;5027412;28;4102;-66
2023/08/26 01:51:08;;;;;;;;;;;;;;;23.97;66.53;100340.25;5031085;28;3973;-66
2023/08/26 01:53:35;;;;;;;;;;;;;;;23.97;66.52;100337.34;5027656;28;4095;-67
2023/08/26 01:56:01;;;;;;;;;;;;;;;23.97;66.45;100334.47;5044564;28;4245;-66
2023/08/26 01:58:29;;;;;;;;;;;;;;;23.97;66.46;100334.47;5026407;28;4174;-67
2023/08/26 02:00:56;;;;;;;;;;;;;;;23.97;66.10;100328.69;5029777;28;4170;-66
2023/08/26 02:03:22;;;;;;;;;;;;;;;23.96;66.28;100335.88;5028556;28;5230;-68
2023/08/26 02:05:49;;;;;;;;;;;;;;;23.95;66.21;100340.19;5042454;28;4588;-66
2023/08/26 02:08:15;;;;;;;;;;;;;;;23.95;66.33;100334.41;5032168;28;4141;-66
2023/08/26 02:10:42;;;;;;;;;;;;;;;23.94;66.18;100325.00;5033904;28;4186;-67
2023/08/26 02:13:08;;;;;;;;;;;;;;;23.95;66.35;100337.31;5023092;28;4139;-66
2023/08/26 02:15:34;;;;;;;;;;;;;;;23.94;66.25;100324.28;5032751;28;4140;-66
2023/08/26 02:18:01;;;;;;;;;;;;;;;23.92;66.19;100318.44;5029333;28;4038;-66
2023/08/26 02:20:27;;;;;;;;;;;;;;;23.92;66.29;100315.56;5032723;28;4264;-66
2023/08/26 02:22:55;;;;;;;;;;;;;;;23.91;66.49;100314.06;5045813;28;4130;-67
2023/08/26 02:25:21;;;;;;;;;;;;;;;23.90;66.40;100310.44;5026162;28;4010;-66
2023/08/26 02:27:49;;;;;;;;;;;;;;;23.91;66.16;100302.50;5042706;28;4463;-66
2023/08/26 02:30:15;;;;;;;;;;;;;;;23.89;66.13;100305.34;5030831;28;4484;-66
2023/08/26 02:32:42;;;;;;;;;;;;;;;23.90;66.53;100303.94;5029627;28;3941;-66
2023/08/26 02:35:08;;;;;;;;;;;;;;;23.88;66.44;100295.22;5027828;28;4138;-66
2023/08/26 02:37:35;;;;;;;;;;;;;;;23.87;66.63;100290.84;5024410;28;4124;-66
2023/08/26 02:40:03;;;;;;;;;;;;;;;23.88;66.33;100286.53;5028459;28;4014;-66
2023/08/26 02:42:29;;;;;;;;;;;;;;;23.87;66.38;100282.94;5026313;28;4379;-66
2023/08/26 02:44:56;;;;;;;;;;;;;;;23.86;66.41;100278.53;5045671;28;4029;-66
2023/08/26 02:47:22;;;;;;;;;;;;;;;23.87;66.45;100279.28;5033470;28;4476;-66
2023/08/26 02:49:49;;;;;;;;;;;;;;;23.86;66.38;100274.94;5029718;28;4136;-66
2023/08/26 02:52:15;;;;;;;;;;;;;;;23.85;66.58;100282.16;5025502;28;4165;-66
2023/08/26 02:54:42;;;;;;;;;;;;;;;23.86;66.55;100289.38;5042530;28;4099;-67
2023/08/26 02:57:08;;;;;;;;;;;;;;;23.85;66.49;100288.66;5024804;28;4407;-66
2023/08/26 02:59:35;;;;;;;;;;;;;;;23.84;66.34;100292.94;5026689;28;4172;-66
2023/08/26 03:02:03;;;;;;;;;;;;;;;23.85;66.45;100293.72;5028598;28;4143;-67
2023/08/26 03:04:31;;;;;;;;;;;;;;;23.85;66.28;100306.00;5043457;28;4202;-66
2023/08/26 03:06:58;;;;;;;;;;;;;;;23.86;66.33;100303.84;5027799;28;4153;-65
2023/08/26 03:09:25;;;;;;;;;;;;;;;23.85;66.43;100299.50;5045262;28;4169;-66
2023/08/26 03:11:52;;;;;;;;;;;;;;;23.83;66.45;100306.69;5026335;28;4190;-66
2023/08/26 03:14:18;;;;;;;;;;;;;;;23.83;66.67;100309.56;5025332;28;4374;-66
2023/08/26 03:16:45;;;;;;;;;;;;;;;23.82;66.63;100308.13;5026244;28;4143;-66
2023/08/26 03:19:12;;;;;;;;;;;;;;;23.81;66.32;100295.06;5029793;28;4055;-66
2023/08/26 03:21:38;;;;;;;;;;;;;;;23.82;66.32;100301.56;5029156;28;4141;-66
2023/08/26 03:24:05;;;;;;;;;;;;;;;23.81;66.52;100297.22;5025054;28;4165;-65
2023/08/26 03:26:31;;;;;;;;;;;;;;;23.80;66.52;100310.19;5027996;28;4010;-66
2023/08/26 03:28:58;;;;;;;;;;;;;;;23.80;66.53;100310.97;5043819;28;4201;-65
2023/08/26 03:31:25;;;;;;;;;;;;;;;23.78;66.61;100296.44;5028257;28;4042;-66
2023/08/26 03:33:51;;;;;;;;;;;;;;;23.77;66.66;100306.53;5028805;28;4226;-69
2023/08/26 03:36:18;;;;;;;;;;;;;;;23.80;66.51;100322.53;5028588;28;4075;-66
2023/08/26 03:38:44;;;;;;;;;;;;;;;23.65;66.90;100317.78;5042470;28;3980;-67
2023/08/26 03:41:12;;;;;;;;;;;;;;;23.68;67.05;100316.41;5041892;28;4097;-66
2023/08/26 03:43:38;;;;;;;;;;;;;;;23.74;66.95;100318.72;5041447;28;4194;-66
2023/08/26 03:46:05;;;;;;;;;;;;;;;23.74;66.79;100312.94;5044350;28;3992;-66
2023/08/26 03:48:31;;;;;;;;;;;;;;;23.75;66.82;100308.63;5044766;28;4013;-66
2023/08/26 03:50:58;;;;;;;;;;;;;;;23.75;66.70;100303.59;5025989;28;4149;-65
2023/08/26 03:53:24;;;;;;;;;;;;;;;23.73;66.79;100303.53;5029044;28;4128;-66
2023/08/26 03:55:51;;;;;;;;;;;;;;;23.74;66.91;100310.03;5029404;28;4186;-67
2023/08/26 03:58:18;;;;;;;;;;;;;;;23.75;66.74;100315.16;5024605;28;4645;-67
2023/08/26 04:00:44;;;;;;;;;;;;;;;23.77;66.62;100308.69;5041727;28;4074;-67
2023/08/26 04:03:10;;;;;;;;;;;;;;;23.75;66.62;100305.75;5030167;28;4230;-66
2023/08/26 04:05:38;;;;;;;;;;;;;;;23.73;66.94;100297.75;5025384;28;4049;-66
2023/08/26 04:08:05;;;;;;;;;;;;;;;23.73;67.13;100302.78;5025859;28;4304;-66
2023/08/26 04:10:31;;;;;;;;;;;;;;;23.72;66.96;100302.06;5044667;28;4061;-66
2023/08/26 04:13:01;;;;;;;;;;;;;;;23.73;66.68;100305.69;5041072;28;4227;-66
2023/08/26 04:15:27;;;;;;;;;;;;;;;23.74;66.83;100302.13;5039283;28;4202;-66
2023/08/26 04:17:54;;;;;;;;;;;;;;;23.74;66.91;100302.13;5041901;28;3957;-66
2023/08/26 04:20:21;;;;;;;;;;;;;;;23.76;67.01;100310.13;5043185;28;4214;-66
2023/08/26 04:22:47;;;;;;;;;;;;;;;23.73;67.08;100303.53;5028549;28;3991;-66
2023/08/26 04:25:14;;;;;;;;;;;;;;;23.74;66.90;100296.34;5043050;28;4087;-66
2023/08/26 04:27:40;;;;;;;;;;;;;;;23.72;67.12;100296.28;5026167;28;4131;-66
2023/08/26 04:30:10;;;;;;;;;;;;;;;23.72;67.07;100290.50;5026681;28;4322;-66
2023/08/26 04:32:36;;;;;;;;;;;;;;;23.71;67.18;100300.59;5025192;28;4118;-66
2023/08/26 04:35:04;;;;;;;;;;;;;;;23.71;67.34;100309.28;5028481;28;4100;-66
2023/08/26 04:37:30;;;;;;;;;;;;;;;23.70;67.61;100330.19;5027610;28;4173;-66
2023/08/26 04:39:57;;;;;;;;;;;;;;;23.70;67.63;100330.91;5023677;28;4226;-66
2023/08/26 04:42:23;;;;;;;;;;;;;;;23.73;67.59;100334.56;5037556;28;4094;-66
2023/08/26 04:44:50;;;;;;;;;;;;;;;23.72;67.60;100330.97;5028574;28;4275;-67
2023/08/26 04:47:16;;;;;;;;;;;;;;;23.73;67.61;100335.34;5028556;28;3958;-66
2023/08/26 04:49:43;;;;;;;;;;;;;;;23.72;67.71;100328.06;5027926;28;4198;-66
2023/08/26 04:52:10;;;;;;;;;;;;;;;23.72;67.73;100336.75;5042460;28;4141;-66
2023/08/26 04:54:36;;;;;;;;;;;;;;;23.73;67.76;100334.56;5030242;28;4350;-67
2023/08/26 04:57:03;;;;;;;;;;;;;;;23.67;68.23;100331.56;5024185;28;4246;-66
2023/08/26 04:59:29;;;;;;;;;;;;;;;23.64;68.67;100336.56;5025146;28;4053;-67
2023/08/26 05:01:56;;;;;;;;;;;;;;;23.66;68.53;100330.81;5024145;28;4046;-66
2023/08/26 05:04:22;;;;;;;;;;;;;;;23.67;68.73;100331.56;5024584;28;5292;-68
2023/08/26 05:06:49;;;;;;;;;;;;;;;23.64;68.64;100339.44;5026032;28;4224;-67
2023/08/26 05:09:15;;;;;;;;;;;;;;;23.53;69.45;100334.84;5025245;28;3980;-67
2023/08/26 05:11:43;;;;;;;;;;;;;;;23.52;69.33;100328.28;5038933;28;4139;-67
2023/08/26 05:14:10;;;;;;;;;;;;;;;23.53;69.45;100323.28;5016456;28;4011;-66
2023/08/26 05:16:36;;;;;;;;;;;;;;;23.61;69.56;100335.03;5022187;28;4672;-66
2023/08/26 05:19:03;;;;;;;;;;;;;;;23.48;70.20;100339.03;5038894;28;4180;-65
2023/08/26 05:21:30;;;;;;;;;;;;;;;23.54;69.89;100342.81;5021545;28;4179;-66
2023/08/26 05:23:56;;;;;;;;;;;;;;;23.59;69.68;100343.63;5041463;28;5140;-66
2023/08/26 05:26:24;;;;;;;;;;;;;;;23.56;70.24;100337.06;5028783;28;4530;-66
2023/08/26 05:28:51;;;;;;;;;;;;;;;23.61;70.14;100350.19;5021382;28;4049;-66
2023/08/26 05:31:17;;;;;;;;;;;;;;;23.55;70.37;100360.91;5041892;28;4177;-66
2023/08/26 05:33:45;;;;;;;;;;;;;;;23.57;70.49;100366.72;5032949;28;4535;-66
2023/08/26 05:36:11;;;;;;;;;;;;;;;23.60;70.13;100368.97;5036496;28;3948;-66
2023/08/26 05:38:37;;;;;;;;;;;;;;;23.59;70.34;100360.97;5049884;28;4152;-66
2023/08/26 05:41:04;;;;;;;;;;;;;;;23.59;70.33;100366.75;5045802;28;4108;-66
2023/08/26 05:43:30;;;;;;;;;;;;;;;23.64;70.16;100374.13;5028712;28;4091;-66
2023/08/26 05:45:57;;;;;;;;;;;;;;;23.64;70.25;100371.25;5024228;28;4304;-64
2023/08/26 05:48:23;;;;;;;;;;;;;;;23.62;70.54;100382.75;5043199;28;4199;-66
2023/08/26 05:50:50;;;;;;;;;;;;;;;23.58;70.66;100382.63;5043711;28;4113;-66
2023/08/26 05:53:16;;;;;;;;;;;;;;;23.59;70.77;100379.06;5027105;28;4243;-66
2023/08/26 05:55:46;;;;;;;;;;;;;;;23.62;70.62;100389.25;5039988;28;4137;-66
2023/08/26 05:58:12;;;;;;;;;;;;;;;23.64;70.82;100391.47;5028404;28;4217;-66
2023/08/26 06:00:39;;;;;;;;;;;;;;;23.60;70.79;100397.16;5039627;28;4131;-67
2023/08/26 06:03:06;;;;;;;;;;;;;;;23.65;70.67;100407.38;5023846;28;3943;-66
2023/08/26 06:05:32;;;;;;;;;;;;;;;23.68;70.48;100414.69;5025593;28;4101;-66
2023/08/26 06:07:59;;;;;;;;;;;;;;;23.71;70.73;100413.34;5029248;28;4061;-66
2023/08/26 06:10:26;;;;;;;;;;;;;;;23.74;70.30;100417.75;5029974;28;4331;-66
2023/08/26 06:12:52;;;;;;;;;;;;;;;23.77;70.43;100409.88;5023174;28;4156;-66
2023/08/26 06:15:20;;;;;;;;;;;;;;;23.67;71.02;100398.03;5025368;28;4060;-66
2023/08/26 06:17:46;;;;;;;;;;;;;;;23.66;71.15;100399.44;5042556;28;4105;-67
2023/08/26 06:20:18;;;;;;;;;;;;;;;23.63;71.57;100387.09;5028287;28;4269;-66
2023/08/26 06:22:45;;;;;;;;;;;;;;;23.60;71.69;100392.09;5026275;28;4060;-65
2023/08/26 06:25:12;;;;;;;;;;;;;;;23.54;71.84;100382.53;5046996;28;4896;-65
2023/08/26 06:27:38;;;;;;;;;;;;;;;23.59;71.67;100381.22;5031078;28;3994;-65
2023/08/26 06:30:05;;;;;;;;;;;;;;;23.58;71.99;100377.59;5027512;28;4228;-65
2023/08/26 06:32:32;;;;;;;;;;;;;;;23.56;71.93;100385.47;5039834;28;4096;-65
2023/08/26 06:34:59;;;;;;;;;;;;;;;23.62;71.67;100400.09;5044447;28;4056;-65
2023/08/26 06:37:25;;;;;;;;;;;;;;;23.71;71.20;100401.78;5045634;28;4201;-66
2023/08/26 06:39:52;;;;;;;;;;;;;;;23.70;71.12;100411.84;5032186;28;4174;-65
2023/08/26 06:42:18;;;;;;;;;;;;;;;23.62;71.75;100421.06;5043237;28;4045;-68
2023/08/26 06:44:54;;;;;;;;;;;;;;;23.64;71.91;100431.94;5028097;28;3921;-69
2023/08/26 06:47:20;;;;;;;;;;;;;;;23.39;73.02;100431.28;5029513;28;4069;-66
2023/08/26 06:49:48;;;;;;;;;;;;;;;23.38;73.36;100452.91;5039010;28;4026;-66
2023/08/26 06:52:14;;;;;;;;;;;;;;;23.46;73.28;100448.78;5021057;28;4114;-65
2023/08/26 06:54:41;;;;;;;;;;;;;;;23.45;73.31;100453.09;5025961;28;4136;-65
2023/08/26 06:57:07;;;;;;;;;;;;;;;23.44;73.47;100452.38;5038509;28;4073;-66
2023/08/26 06:59:34;;;;;;;;;;;;;;;23.41;73.85;100448.69;5025109;28;4171;-66
2023/08/26 07:02:00;;;;;;;;;;;;;;;23.35;74.06;100451.41;5023106;28;4090;-65
2023/08/26 07:04:26;;;;;;;;;;;;;;;23.32;74.58;100449.88;5021471;28;4087;-65
2023/08/26 07:06:53;;;;;;;;;;;;;;;23.29;74.69;100468.56;5024489;28;4087;-65
2023/08/26 07:09:19;;;;;;;;;;;;;;;23.39;74.30;100460.19;5019344;28;4148;-65
2023/08/26 07:11:46;;;;;;;;;;;;;;;23.36;74.42;100441.31;5023255;28;4146;-65
2023/08/26 07:14:12;;;;;;;;;;;;;;;23.34;74.26;100441.25;5026091;28;4216;-66
2023/08/26 07:16:39;;;;;;;;;;;;;;;23.22;74.80;100446.69;5026029;28;3986;-65
2023/08/26 07:19:08;;;;;;;;;;;;;;;23.31;74.36;100448.38;5023026;28;3993;-67
2023/08/26 07:21:35;;;;;;;;;;;;;;;23.39;74.13;100460.19;5026932;28;4081;-64
2023/08/26 07:24:02;;;;;;;;;;;;;;;23.40;74.33;100458.03;5027199;28;4358;-64
2023/08/26 07:26:28;;;;;;;;;;;;;;;23.37;74.37;100465.16;5024668;28;4061;-64
2023/08/26 07:28:55;;;;;;;;;;;;;;;23.44;74.06;100463.19;5026962;28;4196;-64
2023/08/26 07:31:21;;;;;;;;;;;;;;;23.40;74.43;100481.88;5031314;28;4321;-65
2023/08/26 07:33:48;;;;;;;;;;;;;;;23.38;74.42;100476.03;5027933;28;4012;-64
2023/08/26 07:36:14;;;;;;;;;;;;;;;23.37;74.65;100473.84;5025250;28;4200;-64
2023/08/26 07:38:41;;;;;;;;;;;;;;;23.38;74.42;100470.25;5028462;28;4137;-65
2023/08/26 07:41:07;;;;;;;;;;;;;;;23.37;74.82;100476.72;5026340;28;4091;-64
2023/08/26 07:43:37;;;;;;;;;;;;;;;23.34;74.97;100481.72;5029777;28;3966;-64
2023/08/26 07:46:03;;;;;;;;;;;;;;;23.46;74.68;100483.47;5024660;28;5177;-64
2023/08/26 07:48:33;;;;;;;;;;;;;;;23.52;74.29;100477.84;5032232;28;4321;-65
2023/08/26 07:51:02;;;;;;;;;;;;;;;23.55;74.31;100476.50;5031387;28;4069;-65
2023/08/26 07:53:28;;;;;;;;;;;;;;;23.52;74.34;100469.16;5028752;28;4104;-65
2023/08/26 07:55:55;;;;;;;;;;;;;;;23.51;74.07;100470.59;5026487;28;4114;-65
2023/08/26 07:58:22;;;;;;;;;;;;;;;23.51;74.16;100476.38;5025335;28;4018;-65
2023/08/26 08:00:48;;;;;;;;;;;;;;;23.56;74.23;100477.97;5025201;28;5054;-65
2023/08/26 08:03:15;;;;;;;;;;;;;;;23.60;74.03;100478.06;5026850;28;4055;-67
2023/08/26 08:05:41;;;;;;;;;;;;;;;23.55;73.70;100482.28;5024717;28;4106;-66
2023/08/26 08:08:08;;;;;;;;;;;;;;;23.51;73.70;100490.81;5025424;28;4450;-66
2023/08/26 08:10:35;;;;;;;;;;;;;;;23.46;73.95;100497.91;5027159;28;4160;-67
2023/08/26 08:13:01;;;;;;;;;;;;;;;23.43;74.00;100500.00;5024295;28;4314;-66
2023/08/26 08:15:27;;;;;;;;;;;;;;;23.42;74.51;100499.25;5025883;28;4049;-67
2023/08/26 08:17:54;;;;;;;;;;;;;;;23.33;74.71;100488.91;5028051;28;4035;-67
2023/08/26 08:20:20;;;;;;;;;;;;;;;23.44;74.39;100501.47;5025901;28;4201;-68
2023/08/26 08:22:47;;;;;;;;;;;;;;;23.48;73.75;100503.72;5030258;28;4124;-67
2023/08/26 08:25:14;;;;;;;;;;;;;;;23.36;74.26;100493.31;5024522;28;4053;-67
2023/08/26 08:27:40;;;;;;;;;;;;;;;23.41;73.58;100486.25;5024242;28;4004;-67
2023/08/26 08:30:07;;;;;;;;;;;;;;;23.38;73.66;100499.16;5029807;28;4170;-67
2023/08/26 08:32:33;;;;;;;;;;;;;;;23.37;73.58;100500.56;5027621;28;4067;-67
2023/08/26 08:35:00;;;;;;;;;;;;;;;23.35;73.55;100494.72;5025578;28;4252;-67
2023/08/26 08:37:27;;;;;;;;;;;;;;;23.31;73.51;100497.50;5027731;28;4188;-70
2023/08/26 08:39:53;;;;;;;;;;;;;;;23.36;73.47;100501.97;5023110;28;4203;-75
2023/08/26 08:42:20;;;;;;;;;;;;;;;23.46;73.08;100500.81;5024399;28;4118;-72
2023/08/26 08:44:46;;;;;;;;;;;;;;;23.49;72.96;100485.00;5024654;28;4044;-69
2023/08/26 08:47:13;;;;;;;;;;;;;;;23.57;72.81;100496.75;5039714;28;4041;-70
2023/08/26 08:49:40;;;;;;;;;;;;;;;23.63;72.61;100485.38;5026279;28;4021;-70
2023/08/26 08:52:07;;;;;;;;;;;;;;;23.68;72.58;100494.88;5029707;28;4174;-69
2023/08/26 08:54:34;;;;;;;;;;;;;;;23.71;72.22;100500.06;5026914;28;4171;-69
2023/08/26 08:57:00;;;;;;;;;;;;;;;23.73;72.01;100496.47;5026169;28;3976;-69
2023/08/26 08:59:27;;;;;;;;;;;;;;;23.74;71.73;100495.81;5034407;28;4164;-69
2023/08/26 09:01:54;;;;;;;;;;;;;;;23.74;71.50;100495.81;5031145;28;3961;-69
2023/08/26 09:04:20;;;;;;;;;;;;;;;23.75;71.55;100505.22;5028689;28;4238;-69
2023/08/26 09:06:48;;;;;;;;;;;;;;;23.75;71.55;100493.66;5031541;28;4093;-69
2023/08/26 09:09:15;;;;;;;;;;;;;;;23.76;71.45;100498.78;5029231;28;4103;-69
2023/08/26 09:11:59;;;;;;;;;;;;;;;23.77;70.98;100491.56;5027915;28;4113;-68
2023/08/26 09:14:26;;;;;;;;;;;;;;;23.78;71.08;100486.53;5029170;28;4173;-69
2023/08/26 09:16:54;;;;;;;;;;;;;;;23.78;70.95;100490.16;5028661;28;4214;-69
2023/08/26 09:19:20;;;;;;;;;;;;;;;23.79;71.02;100485.09;5025915;28;4404;-69
2023/08/26 09:21:47;;;;;;;;;;;;;;;23.80;70.62;100486.56;5031789;28;4184;-69
2023/08/26 09:24:13;;;;;;;;;;;;;;;23.80;70.51;100489.44;5031475;28;4109;-69
2023/08/26 09:26:40;;;;;;;;;;;;;;;23.82;70.64;100480.84;5027286;28;4184;-69
2023/08/26 09:29:33;;;;;;;;;;;;;;;23.81;70.49;100491.66;5034923;28;4213;-69
2023/08/26 09:31:59;;;;;;;;;;;;;;;23.83;70.50;100488.09;5028008;28;4120;-69
2023/08/26 09:34:28;;;;;;;;;;;;;;;23.84;70.36;100492.44;5029104;28;4435;-69
2023/08/26 09:36:55;;;;;;;;;;;;;;;23.85;70.25;100493.22;5032829;28;4254;-69
2023/08/26 09:39:21;;;;;;;;;;;;;;;23.85;70.15;100504.78;5029275;28;4070;-69
2023/08/26 09:41:48;;;;;;;;;;;;;;;23.85;70.12;100499.72;5029490;28;4216;-69
2023/08/26 09:44:15;;;;;;;;;;;;;;;23.86;70.14;100494.66;5032408;28;4176;-68
2023/08/26 09:46:42;;;;;;;;;;;;;;;23.87;70.04;100499.78;5027238;28;4019;-74
2023/08/26 09:49:15;;;;;;;;;;;;;;;23.88;69.94;100497.63;5030259;28;4187;-74
2023/08/26 09:51:45;;;;;;;;;;;;;;;23.88;69.90;100495.47;5036618;28;4181;-74
2023/08/26 09:54:11;;;;;;;;;;;;;;;23.89;69.92;100501.97;5030285;28;5287;-74
2023/08/26 09:56:37;;;;;;;;;;;;;;;23.91;70.17;100504.91;5028140;28;4045;-73
2023/08/26 09:59:04;;;;;;;;;;;;;;;23.87;70.15;100496.13;5030729;28;4341;-68
2023/08/26 10:01:30;;;;;;;;;;;;;;;23.93;69.81;100493.41;5028893;28;4118;-69
2023/08/26 10:04:04;;;;;;;;;;;;;;;23.92;69.87;100494.84;5028218;28;4029;-69
2023/08/26 10:06:31;;;;;;;;;;;;;;;23.93;69.90;100502.09;5031686;28;3974;-68
2023/08/26 10:08:59;;;;;;;;;;;;;;;23.93;69.60;100505.69;5032548;28;4137;-67
2023/08/26 10:11:26;;;;;;;;;;;;;;;23.94;69.68;100509.34;5030408;28;4058;-68
2023/08/26 10:13:52;;;;;;;;;;;;;;;23.94;69.56;100509.34;5041992;28;4166;-69
2023/08/26 10:16:19;;;;;;;;;;;;;;;23.95;69.51;100505.03;5048224;28;4207;-68
2023/08/26 10:19:00;;;;;;;;;;;;;;;23.96;69.50;100500.69;5038710;28;4156;-68
2023/08/26 10:21:27;;;;;;;;;;;;;;;23.95;69.39;100499.25;5047262;28;4129;-68
2023/08/26 10:23:53;;;;;;;;;;;;;;;23.96;69.12;100489.91;5030103;28;4210;-68
2023/08/26 10:26:19;;;;;;;;;;;;;;;23.97;69.12;100490.63;5034795;28;4998;-69
2023/08/26 10:28:46;;;;;;;;;;;;;;;23.99;69.16;100505.88;5027874;28;4028;-68
2023/08/26 10:31:12;;;;;;;;;;;;;;;24.01;69.24;100487.84;5030300;28;4136;-68
2023/08/26 10:33:58;;;;;;;;;;;;;;;24.01;68.96;100496.53;5041814;28;4148;-68
2023/08/26 10:36:25;;;;;;;;;;;;;;;23.97;69.36;100502.94;5030872;28;3986;-65
2023/08/26 10:38:55;;;;;;;;;;;;;;;24.04;68.91;100489.34;5035926;28;4097;-66
2023/08/26 10:41:22;;;;;;;;;;;;;;;24.06;68.22;100498.09;5034841;28;4080;-66
2023/08/26 10:43:52;;;;;;;;;;;;;;;24.09;67.72;100490.91;5032224;28;4048;-65
2023/08/26 10:46:22;;;;;;;;;;;;;;;24.08;68.01;100488.72;5032771;28;4019;-65
2023/08/26 10:48:56;;;;;;;;;;;;;;;24.07;68.32;100482.19;5029587;28;4175;-66
2023/08/26 10:51:22;;;;;;;;;;;;;;;24.06;68.46;100485.78;5029120;28;3935;-65
2023/08/26 10:53:49;;;;;;;;;;;;;;;24.14;67.82;100475.13;5032556;28;3897;-66
2023/08/26 10:56:18;;;;;;;;;;;;;;;24.08;68.01;100482.94;5030966;28;4216;-65
2023/08/26 10:58:45;;;;;;;;;;;;;;;24.13;67.63;100473.69;5032885;28;4209;-66
2023/08/26 11:01:12;;;;;;;;;;;;;;;24.21;66.88;100479.66;5034598;28;4014;-65
2023/08/26 11:03:38;;;;;;;;;;;;;;;24.23;66.05;100476.84;5030397;28;4158;-66
2023/08/26 11:06:05;;;;;;;;;;;;;;;24.16;65.83;100475.19;5024580;28;4161;-65
2023/08/26 11:08:32;;;;;;;;;;;;;;;24.11;65.61;100485.19;5034132;28;4176;-65
2023/08/26 11:10:58;;;;;;;;;;;;;;;24.14;65.65;100471.50;5029271;28;4264;-65
2023/08/26 11:13:24;;;;;;;;;;;;;;;24.17;65.09;100473.06;5034075;28;4104;-65
2023/08/26 11:15:51;;;;;;;;;;;;;;;24.20;65.12;100463.72;5030452;28;4054;-65
2023/08/26 11:18:18;;;;;;;;;;;;;;;24.28;64.90;100471.13;5030959;28;4112;-66
2023/08/26 11:20:44;;;;;;;;;;;;;;;24.25;64.70;100459.50;5022257;28;4228;-66
2023/08/26 11:23:11;;;;;;;;;;;;;;;24.33;63.13;100470.53;5029957;28;4088;-66
2023/08/26 11:25:37;;;;;;;;;;;;;;;24.35;62.78;100470.59;5029566;28;4135;-66
2023/08/26 11:28:05;;;;;;;;;;;;;;;24.32;61.66;100471.94;5028110;28;4168;-65
2023/08/26 11:30:41;;;;;;;;;;;;;;;24.27;61.48;100484.13;5033115;28;4191;-65
2023/08/26 11:33:10;;;;;;;;;;;;;;;24.25;61.01;100479.03;5030501;28;4092;-65
2023/08/26 11:35:37;;;;;;;;;;;;;;;24.24;61.07;100484.06;5023796;28;4753;-65
2023/08/26 11:38:04;;;;;;;;;;;;;;;24.21;61.50;100490.50;5028437;28;4138;-66
2023/08/26 11:40:31;;;;;;;;;;;;;;;24.22;61.42;100492.69;5028567;28;4546;-67
2023/08/26 11:42:58;;;;;;;;;;;;;;;24.24;61.00;100489.13;5025442;28;4197;-66
2023/08/26 11:45:24;;;;;;;;;;;;;;;24.22;61.15;100498.50;5029524;28;4186;-67
2023/08/26 11:47:52;;;;;;;;;;;;;;;24.26;61.55;100489.19;5028155;28;4237;-67
2023/08/26 11:50:18;;;;;;;;;;;;;;;24.27;61.32;100489.91;5030771;28;4097;-65
2023/08/26 11:52:45;;;;;;;;;;;;;;;24.21;61.13;100502.81;5049956;28;4210;-66
2023/08/26 11:55:11;;;;;;;;;;;;;;;24.25;61.35;100514.47;5028391;28;4027;-66
2023/08/26 11:57:38;;;;;;;;;;;;;;;24.31;61.04;100511.00;5027650;28;4112;-65
2023/08/26 12:00:09;;;;;;;;;;;;;;;24.35;61.35;100507.47;5026095;28;4043;-73
2023/08/26 12:02:38;;;;;;;;;;;;;;;24.61;61.75;100511.03;5029239;28;4189;-75
2023/08/26 12:05:05;;;;;;;;;;;;;;;24.58;62.44;100505.84;5027526;28;4125;-76
2023/08/26 12:07:31;;;;;;;;;;;;;;;24.60;60.24;100500.88;5030355;28;4260;-74
2023/08/26 12:09:57;;;;;;;;;;;;;;;24.73;59.90;100513.44;5027438;28;4163;-72
2023/08/26 12:12:24;;;;;;;;;;;;;;;24.75;58.92;100509.88;5044680;28;4147;-73
2023/08/26 12:14:51;;;;;;;;;;;;;;;24.96;58.84;100506.00;5031489;28;4035;-74
2023/08/26 12:17:17;;;;;;;;;;;;;;;25.07;58.21;100504.06;5036325;28;4283;-74
2023/08/26 12:19:43;;;;;;;;;;;;;;;25.06;58.29;100512.03;5029750;28;4053;-74
2023/08/26 12:22:10;;;;;;;;;;;;;;;24.76;56.79;100494.72;5024060;28;4265;-73
2023/08/26 12:24:39;;;;;;;;;;;;;;;24.90;57.09;100500.09;5028484;28;4202;-73
2023/08/26 12:27:09;;;;;;;;;;;;;;;25.06;57.59;100497.53;5029415;28;4138;-73
2023/08/26 12:29:35;;;;;;;;;;;;;;;25.10;57.13;100499.78;5028663;28;5009;-73
2023/08/26 12:32:02;;;;;;;;;;;;;;;25.19;58.04;100506.50;5032146;28;4025;-73
2023/08/26 12:34:28;;;;;;;;;;;;;;;25.20;57.61;100510.88;5031521;28;4231;-77
2023/08/26 12:36:55;;;;;;;;;;;;;;;25.20;57.65;100505.81;5025381;28;4048;-79
2023/08/26 12:39:22;;;;;;;;;;;;;;;25.16;56.79;100510.78;5026066;28;4020;-80
2023/08/26 12:41:48;;;;;;;;;;;;;;;25.15;56.55;100509.28;5028489;28;4050;-81
2023/08/26 12:44:16;;;;;;;;;;;;;;;25.16;56.70;100516.56;5027288;28;4175;-76
2023/08/26 12:46:42;;;;;;;;;;;;;;;25.19;56.67;100521.72;5032714;28;4181;-76